El Trebol, Argentina

5:20 AM ART on July 10, 2014 (GMT -0300)
Armstrong, Santa Fe, Argentina (ISANTAFE66) Elev 397 ft | 32.79 °S, 61.61 °W | Change Station

Current weather conditions updated 42 seconds ago

Fog
Fog
44.6 °F
Feels Like 45 °F
N
1.6
Wind Variable Wind from West
Gusts 3.8 mph

Today is forecast to be Much Cooler than yesterday.

Today
High -- | Low -- °F
--% Chance of Precip.
Yesterday
High -- | Low -- °F
Precip. -- in
8:07 AM 6:16 PM
Waxing Gibbous, 93% visible
Pressure 30.30 in
Visibility 0.1 miles
Clouds
Windchill 45 °F
Dew Point 44 °F
Humidity 97%
Rainfall 0.00 in
Snow Depth Not available.
UV Not available.
Pollen Not available.
Air Quality Not available.
Flu Activity Not available.
METAR SAAR 100800Z 18005KT 0200 FG VV/// 04/04 Q1026

More Conditions Fewer Conditions

Pressure 30.30 in
Visibility 0.1 miles
Clouds
Windchill 45 °F
Dew Point 44 °F
Humidity 97%
Rainfall 0.00 in
Snow Depth Not available.
UV Not available.
Pollen Not available.
Air Quality Not available.
Flu Activity Not available.
METAR SAAR 100800Z 18005KT 0200 FG VV/// 04/04 Q1026

More Conditions Fewer Conditions

10-Day Weather Forecast

Almanac

Astronomy

Jul. 10, 2014 Rise Set
Actual Time 8:07 AM ART 6:16 PM ART
Civil Twilight 7:41 AM ART 6:43 PM ART
Nautical Twilight 7:10 AM ART 7:13 PM ART
Astronomical Twilight 6:40 AM ART 7:43 PM ART
Moon 4:42 PM ART 5:56 AM ART
Length of Visible Light 11h 02m
Length of Day
10h 08m
Tomorrow will be 0m 49s longer.
Waxing Gibbous, 93% of the Moon is Illuminated
Today
Waxing Gibbous
Jul 12
Full
Jul 18
Last Quarter
Jul 26
New
Aug 3
First Quarter

Yesterday's Extremes

Country Highs Country Lows

Community

WunderPhotos

Upload Photos

1,732,083 photos uploaded!

Nearby

Snow Depth

Not available.

Earthquake Activity

City Distance Mag. Time & Date
No recent earthquake activity has been reported nearby.
Minimum magnitude displayed is 2.5.

Coastal Water Temperatures

Place Temperature
No Stations Reporting

Nearby Weather Stations

Station Location Temp. Windchill Dew Point Humidity Wind Precip. Elev Updated Type
Armstrong, Santa Fe, Argentina, Armstrong 44.6 °F 45 °F 44 °F 97% West  at  1.6 mph 0.00 in / hr 397 ft 5:20 AM ART Normal

Show More Stations Show Fewer Stations